• Join FlightAware (Why Join?)
  • Login
  • US Flag 
07:34PM EST


 

Airport Tracker/Info


-or-


 

Live Flight TrackerFlight Track Log ✈ CSN6490 ✈ 20-Apr-2014 ✈ ZSQD / TAO - ZSHC / HGH

Flight Track Log - Related Links

Times and Time Zones

All times are in EDT time to prevent confusion due to time zone crossing. See the CSN6490 flight status page for this flight to view local times or setup timezone preferences in your user account.

Time Position Orientation Groundspeed Altitude Reporting Facility
EDT Latitude Longitude Course Direction KTS MPH feet Rate Location/Type
09:16PM 36.2465 120.3805 166° South 165 190 1,000  Level FlightAware ADS-B
09:17PM 36.2352 120.3839 166° South 165 190 1,700 2,200 Climbing FlightAware ADS-B
09:17PM 36.2238 120.3875 166° South 182 209 2,100 1,400 Climbing FlightAware ADS-B
09:17PM 36.2135 120.3906 166° South 206 237 2,400 1,200 Climbing FlightAware ADS-B
09:17PM 36.1954 120.3961 166° South 231 266 2,700 1,500 Climbing FlightAware ADS-B
09:17PM 36.1812 120.4005 166° South 252 290 3,100 2,483 Climbing FlightAware ADS-B
09:18PM 36.1630 120.4062 165° South 261 300 3,900 2,813 Climbing FlightAware ADS-B
09:18PM 36.1422 120.4126 165° South 276 318 4,600 2,903 Climbing FlightAware ADS-B
09:18PM 36.1241 120.4182 165° South 280 322 5,400 3,200 Climbing FlightAware ADS-B
09:19PM 36.1048 120.4244 163° South 281 323 6,200 2,229 Climbing FlightAware ADS-B
09:19PM 36.0805 120.4368 155° Southeast 283 326 6,700 720 Climbing FlightAware ADS-B
09:19PM 36.0480 120.4559 154° Southeast 285 328 6,800 955 Climbing FlightAware ADS-B
09:20PM 36.0277 120.4679 154° Southeast 291 335 7,400 3,000 Climbing FlightAware ADS-B
09:20PM 36.0037 120.4821 154° Southeast 291 335 8,500 2,919 Climbing FlightAware ADS-B
09:20PM 35.9844 120.4935 154° Southeast 290 334 9,200 2,063 Climbing FlightAware ADS-B
09:20PM 35.9654 120.5047 154° Southeast 290 334 9,600 1,034 Climbing FlightAware ADS-B
09:21PM 35.9474 120.5153 154° Southeast 292 336 9,700 621 Climbing FlightAware ADS-B
09:21PM 35.9289 120.5261 154° Southeast 290 334 9,900 1,304 Climbing FlightAware ADS-B
09:21PM 35.8903 120.5483 155° Southeast 322 371 10,700 1,400 Climbing FlightAware ADS-B
09:22PM 35.8473 120.5731 154° Southeast 360 414 11,300 1,300 Climbing FlightAware ADS-B
09:22PM 35.7998 120.6007 154° Southeast 387 445 12,000 1,800 Climbing FlightAware ADS-B
09:23PM 35.7501 120.6296 154° Southeast 400 460 13,100 2,486 Climbing FlightAware ADS-B
09:24PM 35.6828 120.6687 154° Southeast 407 468 14,900 2,229 Climbing FlightAware ADS-B
09:24PM 35.6305 120.6990 154° Southeast 417 480 15,700 1,714 Climbing FlightAware ADS-B
09:25PM 35.5684 120.7348 154° Southeast 420 483 16,900 1,714 Climbing FlightAware ADS-B
09:25PM 35.5235 120.7607 154° Southeast 426 490 17,700 1,655 Climbing FlightAware ADS-B
09:28PM 35.3310 120.7480 183° South  Level Estimated
09:29PM 35.2448 120.7423 183° South  Level Estimated
09:30PM 35.1586 120.7367 183° South  Level Estimated
09:31PM 35.0724 120.7310 183° South  Level Estimated
09:32PM 34.9862 120.7254 183° South  Level Estimated
09:33PM 34.9000 120.7198 183° South  Level Estimated
09:34PM 34.8138 120.7142 183° South  Level Estimated
09:35PM 34.7276 120.7086 183° South  Level Estimated
09:36PM 34.6413 120.7030 183° South  Level Estimated
09:37PM 34.5551 120.6974 183° South  Level Estimated
09:38PM 34.4689 120.6919 183° South  Level Estimated
09:39PM 34.3827 120.6863 183° South  Level Estimated
09:40PM 34.2965 120.6808 183° South  Level Estimated
09:41PM 34.2103 120.6753 183° South  Level Estimated
09:42PM 34.1241 120.6698 183° South  Level Estimated
09:43PM 34.0378 120.6643 183° South  Level Estimated
09:44PM 33.9516 120.6588 183° South  Level Estimated
09:45PM 33.8654 120.6533 183° South  Level Estimated
09:46PM 33.7792 120.6479 183° South  Level Estimated
09:47PM 33.6930 120.6424 183° South  Level Estimated
09:48PM 33.6068 120.6370 183° South  Level Estimated
09:49PM 33.5206 120.6315 183° South  Level Estimated
09:50PM 33.4344 120.6261 183° South  Level Estimated
09:51PM 33.3481 120.6207 183° South  Level Estimated
09:52PM 33.2619 120.6153 183° South  Level Estimated
09:53PM 33.1757 120.6099 183° South  Level Estimated
09:54PM 33.0895 120.6045 183° South  Level Estimated
09:55PM 33.0033 120.5992 183° South  Level Estimated
09:56PM 32.9171 120.5938 183° South  Level Estimated
09:57PM 32.8308 120.5884 183° South  Level Estimated
09:58PM 32.7446 120.5831 183° South  Level Estimated
09:59PM 32.6584 120.5778 183° South  Level Estimated
10:00PM 32.5722 120.5725 183° South  Level Estimated
10:01PM 32.4860 120.5672 183° South  Level Estimated
10:02PM 32.3998 120.5619 183° South  Level Estimated
10:03PM 32.3135 120.5566 183° South  Level Estimated
10:04PM 32.2273 120.5513 183° South  Level Estimated
10:05PM 32.1411 120.5460 183° South  Level Estimated
10:06PM 32.0549 120.5408 183° South  Level Estimated
10:07PM 31.9687 120.5355 183° South  Level Estimated
10:08PM 31.8825 120.5303 183° South  Level Estimated
10:09PM 31.7962 120.5251 183° South  Level Estimated
10:10PM 31.7100 120.5199 183° South  Level Estimated
10:11PM 31.6238 120.5146 183° South  Level Estimated
10:12PM 31.5376 120.5095 183° South  Level Estimated
10:13PM 31.4514 120.5043 183° South  Level Estimated
10:14PM 31.3651 120.4991 183° South  Level Estimated
10:15PM 31.2789 120.4939 183° South  Level Estimated
10:16PM 31.1927 120.4887 183° South  Level Estimated
10:17PM 31.1065 120.4836 183° South  Level Estimated
10:18PM 31.0203 120.4785 183° South  Level Estimated
10:19PM 30.9340 120.4733 183° South  Level Estimated
10:20PM 30.8478 120.4682 183° South  Level Estimated
10:21PM 30.7616 120.4631 183° South  Level Estimated
10:22PM 30.6754 120.4580 183° South  Level Estimated
10:23PM 30.5891 120.4529 183° South  Level Estimated
10:24PM 30.5029 120.4478 183° South  Level Estimated
10:25PM 30.4167 120.4427 183° South  Level Estimated
10:26PM 30.3305 120.4377 183° South  Level Estimated
10:27PM 30.2443 120.4326 183° South  Level Estimated
10:28PM 30.2283 120.4317 183° South  Level Estimated
10:29PM 30.2283 120.4317 North  Level Estimated
10:30PM 30.2283 120.4317 North  Level Estimated
10:31PM 30.2283 120.4317 North  Level Estimated
10:32PM 30.2283 120.4317 North  Level Estimated
10:33PM 30.2283 120.4317 North  Level Estimated
10:34PM 30.2283 120.4317 North  Level Estimated
10:35PM 30.2283 120.4317 North  Level Estimated
10:36PM 30.2283 120.4317 North  Level Estimated
10:37PM 30.2283 120.4317 North  Level Estimated
10:38PM 30.2283 120.4317 North  Level Estimated
10:39PM 30.2283 120.4317 North  Level Estimated
10:40PM 30.2283 120.4317 North  Level Estimated
10:41PM 30.2283 120.4317 North  Level Estimated
10:42PM 30.2283 120.4317 North  Level Estimated